Latest Weather Observations for Melbourne (Olympic Park)

IDV60901

Issued at 1:51 pm EST Tuesday 1 September 2015 (issued every 10 minutes, with the page automatically refreshed every 10 minutes)

About weather observations | Map of Melbourne area stations | Latest observations for Melbourne area | Other Formats
Station Details ID: 086338 Name: MELBOURNE (OLYMPIC PARK) Lat: -37.83 Lon: 144.98 Height: 7.53 m
Data from the previous 72 hours. | See also: Recent months at Melbourne (Olympic Park)
Date/Time
EST
Tmp

°C
App
Tmp
°C
Dew
Point
°C
Rel
Hum
%
Delta-T

°C
Wind Press
QNH
hPa
Press
MSL
hPa
Rain
since
9 am
mm
Dir
 
Spd
km/h
Gust
km/h
Spd
kts
Gust
kts
01/01:30pm 14.6 11.3 2.5 44 5.4 N 9 15 5 8 1014.5 1014.5 0.0
01/01:00pm 14.5 11.7 3.0 46 5.2 NNW 7 15 4 8 1015.3 1015.3 0.0
01/12:30pm 14.1 11.4 3.6 49 4.8 NNW 7 15 4 8 1015.9 1015.9 0.0
01/12:00pm 13.1 10.6 3.5 52 4.3 SW 6 15 3 8 1016.7 1016.7 0.0
01/11:30am 12.6 9.1 3.5 54 4.1 NNE 11 20 6 11 1017.0 1017.0 0.0
01/11:00am 11.8 8.2 3.1 55 3.8 N 11 17 6 9 1017.3 1017.3 0.0
01/10:30am 11.2 8.4 3.0 57 3.6 NE 7 11 4 6 1017.3 1017.3 0.0
01/10:00am 10.8 8.2 3.4 60 3.2 NE 6 9 3 5 1017.5 1017.5 0.0
01/09:30am 9.7 6.8 4.7 71 2.2 N 9 11 5 6 1017.6 1017.6 0.0
01/09:00am 8.6 5.7 4.4 75 1.8 NNE 9 13 5 7 1017.6 1017.6 0.0
01/08:30am 8.0 5.1 4.9 81 1.4 NE 9 13 5 7 1017.6 1017.6 0.0
01/08:00am 6.3 3.8 4.5 88 0.8 N 7 11 4 6 1017.6 1017.6 0.0
01/07:30am 5.4 2.3 3.6 88 0.8 NNE 9 15 5 8 1017.4 1017.4 0.0
01/07:00am 5.3 2.2 3.6 89 0.7 N 9 13 5 7 1017.1 1017.1 0.0
01/06:30am 5.8 3.3 3.8 87 0.8 N 6 9 3 5 1016.8 1016.8 0.0
01/06:00am 6.8 4.2 4.1 83 1.2 NNE 7 11 4 6 1016.7 1016.7 0.0
01/05:30am 7.3 6.0 3.9 79 1.5 CALM 0 0 0 0 1016.7 1016.7 0.0
01/05:00am 8.5 6.5 2.5 66 2.5 SE 2 7 1 4 1016.8 1016.8 0.0
01/04:30am 8.8 7.4 3.4 69 2.3 CALM 0 6 0 3 1016.8 1016.8 0.0
01/04:00am 9.7 7.3 2.1 59 3.2 E 4 9 2 5 1016.9 1016.9 0.0
01/03:30am 9.1 7.7 3.7 69 2.3 CALM 0 0 0 0 1017.2 1017.2 0.0
01/03:00am 9.0 7.8 4.4 73 2.0 CALM 0 0 0 0 1017.4 1017.4 0.0
01/02:30am 9.4 8.0 3.6 67 2.5 CALM 0 0 0 0 1017.6 1017.6 0.0
01/02:00am 9.9 8.4 3.0 62 3.0 CALM 0 0 0 0 1018.1 1018.1 0.0
01/01:30am 10.1 8.0 2.0 57 3.4 SSW 2 7 1 4 1018.5 1018.5 0.0
01/01:00am 10.1 7.7 2.2 58 3.3 SE 4 9 2 5 1018.6 1018.6 0.0
01/12:30am 10.0 8.4 2.6 60 3.2 CALM 0 9 0 5 1018.7 1018.7 0.0
01/12:00am 10.3 7.0 2.2 57 3.4 SSW 9 17 5 9 1018.6 1018.6 0.0
 
Date/Time
EST
Tmp

°C
App
Tmp
°C
Dew
Point
°C
Rel
Hum
%
Delta-T

°C
Wind Press
QNH
hPa
Press
MSL
hPa
Rain
since
9 am
mm
Dir
 
Spd
km/h
Gust
km/h
Spd
kts
Gust
kts
31/11:30pm 10.3 8.4 2.9 60 3.2 S 2 7 1 4 1018.7 1018.7 0.0
31/11:00pm 10.4 7.6 3.2 61 3.1 SE 7 11 4 6 1018.9 1018.9 0.0
31/10:30pm 10.6 7.4 2.9 59 3.3 E 9 15 5 8 1019.0 1019.0 0.0
31/10:00pm 10.6 8.5 4.1 64 2.9 SSE 4 7 2 4 1019.1 1019.1 0.0
31/09:30pm 10.6 9.2 3.6 62 3.1 CALM 0 6 0 3 1019.2 1019.2 0.0
31/09:00pm 10.8 8.1 3.6 61 3.2 SSE 7 11 4 6 1019.3 1019.3 0.0
31/08:30pm 10.9 8.2 3.5 60 3.3 SE 7 15 4 8 1019.2 1019.2 0.0
31/08:00pm 10.7 8.4 4.8 67 2.7 S 6 11 3 6 1019.2 1019.2 0.0
31/07:30pm 10.7 7.8 4.8 67 2.7 S 9 15 5 8 1019.0 1019.0 0.0
31/07:00pm 10.6 7.6 4.3 65 2.8 SSE 9 15 5 8 1018.9 1018.9 0.0
31/06:30pm 10.6 7.6 3.9 63 3.0 S 9 17 5 9 1018.9 1018.9 0.0
31/06:00pm 10.7 7.2 3.5 61 3.1 SSE 11 15 6 8 1019.0 1019.0 0.0
31/05:30pm 10.7 7.0 4.2 64 2.9 S 13 20 7 11 1019.1 1019.1 0.0
31/05:00pm 10.9 7.2 4.4 64 2.9 S 13 22 7 12 1019.0 1019.0 0.0
31/04:30pm 11.0 7.3 4.2 63 3.0 SSW 13 20 7 11 1019.1 1019.1 0.0
31/04:00pm 11.1 7.4 4.3 63 3.0 SSW 13 20 7 11 1019.1 1019.1 0.0
31/03:30pm 11.2 7.8 4.2 62 3.1 SSW 11 19 6 10 1019.0 1019.0 0.0
31/03:00pm 11.4 8.0 3.9 60 3.3 SSW 11 20 6 11 1019.0 1019.0 0.0
31/02:30pm 11.9 7.6 3.4 56 3.8 SSW 15 24 8 13 1019.1 1019.1 0.0
31/02:00pm 11.9 7.6 3.2 55 3.8 SSW 15 22 8 12 1019.2 1019.2 0.0
31/01:30pm 12.9 9.5 3.8 54 4.1 SSW 11 20 6 11 1019.3 1019.3 0.0
31/01:00pm 12.2 8.2 2.9 53 4.1 SW 13 19 7 10 1019.6 1019.6 0.0
31/12:30pm 12.1 8.4 2.6 52 4.1 SSW 11 17 6 9 1020.2 1020.2 0.0
31/12:00pm 11.3 7.2 2.1 53 3.9 S 13 20 7 11 1020.6 1020.6 0.0
31/11:30am 11.9 9.3 3.4 56 3.8 SSW 6 17 3 9 1020.8 1020.8 0.0
31/11:00am 10.8 8.0 5.1 68 2.6 S 9 17 5 9 1021.1 1021.1 0.0
31/10:30am 10.5 7.2 4.4 66 2.7 SSW 11 19 6 10 1021.0 1021.0 0.0
31/10:00am 10.6 7.7 4.7 67 2.6 SSW 9 17 5 9 1021.2 1021.2 0.0
31/09:30am 10.2 6.8 3.9 65 2.8 SSW 11 19 6 10 1021.3 1021.3 0.0
31/09:00am 10.1 7.6 4.0 66 2.7 SSW 6 11 3 6 1021.3 1021.3 0.0
31/08:30am 9.5 7.0 3.7 67 2.5 W 6 11 3 6 1021.3 1021.3 0.0
31/08:00am 9.1 6.4 3.9 70 2.3 W 7 11 4 6 1021.2 1021.2 0.0
31/07:30am 8.8 6.9 4.8 76 1.8 W 4 7 2 4 1021.0 1021.0 0.0
31/07:00am 8.5 7.0 4.9 78 1.6 WSW 2 7 1 4 1020.9 1020.9 0.0
31/06:30am 8.3 6.4 4.7 78 1.6 W 4 9 2 5 1020.9 1020.9 0.0
31/06:00am 8.2 6.0 5.3 82 1.3 WSW 6 11 3 6 1021.0 1021.0 0.0
31/05:30am 8.2 5.5 5.5 83 1.2 W 9 15 5 8 1020.9 1020.9 0.0
31/05:00am 8.4 6.3 5.7 83 1.2 WSW 6 13 3 7 1020.8 1020.8 0.0
31/04:30am 8.5 6.2 5.8 83 1.2 W 7 13 4 7 1020.8 1020.8 0.0
31/04:00am 8.5 6.2 5.6 82 1.3 W 7 11 4 6 1020.9 1020.9 0.0
31/03:30am 8.5 6.7 5.6 82 1.3 SW 4 9 2 5 1020.8 1020.8 0.0
31/03:00am 8.6 6.9 6.1 84 1.1 W 4 9 2 5 1021.0 1021.0 0.0
31/02:30am 8.6 6.0 6.2 85 1.1 W 9 13 5 7 1021.4 1021.4 0.0
31/02:00am 8.5 6.8 6.1 85 1.1 W 4 7 2 4 1021.9 1021.9 0.0
31/01:30am 8.7 6.7 6.3 85 1.1 W 6 9 3 5 1022.2 1022.2 0.0
31/01:00am 9.2 7.5 5.8 79 1.5 SW 4 13 2 7 1022.3 1022.3 0.0
31/12:30am 9.6 7.5 6.0 78 1.7 WSW 6 15 3 8 1022.4 1022.4 0.0
31/12:00am 10.0 6.4 5.2 72 2.2 SSW 13 22 7 12 1022.7 1022.7 0.0
 
Date/Time
EST
Tmp

°C
App
Tmp
°C
Dew
Point
°C
Rel
Hum
%
Delta-T

°C
Wind Press
QNH
hPa
Press
MSL
hPa
Rain
since
9 am
mm
Dir
 
Spd
km/h
Gust
km/h
Spd
kts
Gust
kts
30/11:30pm 10.0 8.2 3.7 65 2.8 S 2 6 1 3 1022.8 1022.8 0.0
30/11:00pm 10.1 7.0 3.4 63 2.9 SSW 9 15 5 8 1023.2 1023.2 0.0
30/10:30pm 10.2 6.8 4.1 66 2.7 SSW 11 22 6 12 1023.4 1023.4 0.0
30/10:00pm 10.1 6.8 4.3 67 2.6 S 11 22 6 12 1023.6 1023.6 0.0
30/09:30pm 10.2 7.0 5.0 70 2.3 S 11 19 6 10 1023.8 1023.8 0.0
30/09:00pm 10.0 7.4 6.0 76 1.8 SSW 9 15 5 8 1023.8 1023.8 0.0
30/08:30pm 10.1 6.8 6.3 77 1.8 SSW 13 20 7 11 1023.8 1023.8 0.0
30/08:00pm 10.3 7.4 4.9 69 2.4 S 9 17 5 9 1023.7 1023.7 0.0
30/07:30pm 10.3 7.4 4.9 69 2.4 S 9 15 5 8 1023.6 1023.6 0.0
30/07:00pm 9.9 7.4 4.7 70 2.3 S 7 13 4 7 1023.6 1023.6 0.0
30/06:30pm 10.2 7.0 5.0 70 2.3 S 11 17 6 9 1023.6 1023.6 0.0
30/06:00pm 10.5 6.9 4.9 68 2.5 SSW 13 24 7 13 1023.3 1023.3 0.0
30/05:30pm 10.8 7.7 5.6 70 2.4 S 11 20 6 11 1023.2 1023.2 0.0
30/05:00pm 11.0 7.8 5.1 67 2.7 SSW 11 19 6 10 1023.2 1023.2 0.0
30/04:30pm 11.1 7.2 5.2 67 2.7 SSW 15 20 8 11 1023.2 1023.2 0.0
30/04:00pm 11.3 8.1 5.2 66 2.8 SSW 11 20 6 11 1023.2 1023.2 0.0
30/03:30pm 11.4 7.9 5.3 66 2.8 SSW 13 22 7 12 1023.4 1023.4 0.0
30/03:00pm 11.6 8.1 5.5 66 2.8 SSW 13 24 7 13 1023.4 1023.4 0.0
30/02:30pm 11.7 7.6 6.2 69 2.6 SSW 17 28 9 15 1023.4 1023.4 0.0
30/02:00pm 11.4 7.2 5.9 69 2.5 SSW 17 30 9 16 1023.5 1023.5 0.0
30/01:30pm 11.4 6.9 6.3 71 2.4 SSW 19 30 10 16 1023.7 1023.7 0.0
30/01:00pm 11.6 7.5 6.1 69 2.6 SSW 17 26 9 14 1023.9 1023.9 0.0
30/12:30pm 11.8 8.5 6.3 69 2.6 SW 13 24 7 13 1024.2 1024.2 0.0
30/12:00pm 11.6 7.8 5.9 68 2.6 SSW 15 22 8 12 1024.6 1024.6 0.0
30/11:30am 11.3 7.9 5.8 69 2.6 S 13 22 7 12 1025.0 1025.0 0.0
30/11:00am 11.0 7.5 5.5 69 2.5 SSW 13 19 7 10 1025.2 1025.2 0.0
30/10:30am 11.3 8.4 6.4 72 2.3 SSW 11 20 6 11 1025.1 1025.1 0.0
30/10:00am 11.0 8.7 7.5 79 1.7 WSW 9 17 5 9 1025.2 1025.2 0.0
30/09:30am 10.3 8.3 7.2 81 1.5 WSW 7 13 4 7 1025.4 1025.4 0.0
30/09:00am 9.6 7.7 7.5 87 1.0 W 7 13 4 7 1025.5 1025.5 2.2
30/08:30am 9.3 7.4 7.7 90 0.8 W 7 15 4 8 1025.5 1025.5 2.2
30/08:00am 8.8 6.9 7.6 92 0.6 WSW 7 11 4 6 1025.5 1025.5 2.2
30/07:30am 8.5 6.6 7.6 94 0.4 W 7 15 4 8 1025.2 1025.2 2.2
30/07:00am 8.6 6.8 7.8 95 0.4 W 7 13 4 7 1024.7 1024.7 2.2
30/06:30am 8.6 7.0 8.0 96 0.3 W 6 9 3 5 1024.4 1024.4 2.2
30/06:00am 8.5 6.7 8.1 97 0.2 W 7 13 4 7 1024.2 1024.2 2.2
30/05:30am 8.6 6.9 8.2 97 0.2 W 7 13 4 7 1024.2 1024.2 2.0
30/05:00am 8.5 6.7 8.1 97 0.2 W 7 15 4 8 1024.2 1024.2 2.0
30/04:30am 8.9 7.2 8.3 96 0.3 WSW 7 15 4 8 1024.0 1024.0 1.8
30/04:00am 9.1 7.1 8.5 96 0.3 SW 9 17 5 9 1024.1 1024.1 1.6
30/03:30am 9.2 7.1 8.3 94 0.4 WSW 9 15 5 8 1024.2 1024.2 1.4
30/03:00am 9.7 6.6 7.3 85 1.1 SW 13 22 7 12 1024.3 1024.3 1.4
30/02:30am 10.2 7.3 6.7 79 1.6 SSW 11 24 6 13 1024.3 1024.3 1.4
30/02:00am 9.9 7.9 7.0 82 1.4 SW 7 17 4 9 1024.4 1024.4 1.4
30/01:30am 9.8 7.1 7.4 85 1.1 S 11 20 6 11 1024.9 1024.9 1.4
30/01:00am 9.9 6.5 7.8 87 1.0 SSW 15 22 8 12 1025.1 1025.1 1.4
30/12:30am 9.4 7.3 8.2 92 0.6 SSW 9 15 5 8 1025.2 1025.2 1.4
30/12:00am 9.7 7.5 7.8 88 0.9 SSW 9 17 5 9 1025.5 1025.5 1.2
 
Date/Time
EST
Tmp

°C
App
Tmp
°C
Dew
Point
°C
Rel
Hum
%
Delta-T

°C
Wind Press
QNH
hPa
Press
MSL
hPa
Rain
since
9 am
mm
Dir
 
Spd
km/h
Gust
km/h
Spd
kts
Gust
kts
29/11:30pm 9.6 7.5 8.2 91 0.7 SSW 9 17 5 9 1025.7 1025.7 1.2
29/11:00pm 9.6 7.1 8.2 91 0.7 SSW 11 20 6 11 1025.8 1025.8 1.2
29/10:30pm 9.7 7.5 8.0 89 0.8 SSW 9 20 5 11 1025.9 1025.9 1.2
29/10:00pm 9.6 7.1 8.4 92 0.6 S 11 20 6 11 1026.0 1026.0 1.2
29/09:30pm 9.9 7.9 8.7 92 0.6 SW 9 15 5 8 1025.9 1025.9 1.0
29/09:00pm 9.6 6.0 8.4 92 0.6 SSW 17 26 9 14 1025.7 1025.7 1.0
29/08:30pm 9.7 7.9 9.4 98 0.1 SSW 9 19 5 10 1025.8 1025.8 1.0
29/08:00pm 9.4 7.0 8.8 96 0.3 SW 11 24 6 13 1025.9 1025.9 1.0
29/07:30pm 9.6 6.9 8.8 95 0.4 SSW 13 26 7 14 1025.8 1025.8 0.8
29/07:00pm 10.0 8.5 9.1 94 0.4 SW 7 13 4 7 1025.8 1025.8 0.4
29/06:30pm 9.8 6.6 8.6 92 0.6 SSW 15 28 8 15 1025.6 1025.6 0.4
29/06:00pm 9.8 8.2 8.7 93 0.5 SSW 7 13 4 7 1025.2 1025.2 0.2
29/05:30pm 10.0 6.9 8.8 92 0.6 SSW 15 24 8 13 1025.2 1025.2 0.0
29/05:00pm 10.5 8.0 8.3 86 1.1 SW 11 20 6 11 1025.1 1025.1 0.0
29/04:30pm 10.9 7.9 7.8 81 1.5 SSW 13 41 7 22 1025.1 1025.1 0.0
29/04:00pm 10.6 8.1 8.0 84 1.3 SW 11 22 6 12 1025.0 1025.0 0.0
29/03:30pm 10.2 6.6 8.3 88 0.9 SSW 17 32 9 17 1025.1 1025.1 0.0
29/03:00pm 10.9 8.0 8.0 82 1.4 SW 13 24 7 13 1025.1 1025.1 0.0
29/02:30pm 10.3 6.2 7.7 84 1.2 SSW 19 41 10 22 1025.2 1025.2 0.0
29/02:00pm 11.2 7.2 6.7 74 2.1 SSW 17 26 9 14 1025.1 1025.1 0.0

Latest Capital City Observations: Canberra | Sydney | Melbourne | Brisbane | Adelaide | Perth | Hobart | Darwin

Other Formats:

Comma delimited format used in spreadsheet applications
http://www.bom.gov.au/fwo/IDV60901/IDV60901.95936.axf

JavaScript Object Notation format (JSON) in row-major order
http://www.bom.gov.au/fwo/IDV60901/IDV60901.95936.json